sensor_id;sensor_type;location;lat;lon;timestamp;pressure;altitude;pressure_sealevel;temperature;humidity
59443;BME280;45247;47.466;19.004;2023-05-11T00:02:04;99976.22;;;11.96;79.28
59443;BME280;45247;47.466;19.004;2023-05-11T00:04:33;99977.38;;;11.92;78.75
59443;BME280;45247;47.466;19.004;2023-05-11T00:07:01;99980.00;;;11.92;79.35
59443;BME280;45247;47.466;19.004;2023-05-11T00:09:30;99981.03;;;11.90;80.89
59443;BME280;45247;47.466;19.004;2023-05-11T00:11:58;99977.56;;;11.89;81.20
59443;BME280;45247;47.466;19.004;2023-05-11T00:14:28;99977.66;;;11.88;81.51
59443;BME280;45247;47.466;19.004;2023-05-11T00:16:57;99979.47;;;11.87;82.52
59443;BME280;45247;47.466;19.004;2023-05-11T00:19:25;99980.59;;;11.83;83.16
59443;BME280;45247;47.466;19.004;2023-05-11T00:21:53;99977.00;;;11.84;82.22
59443;BME280;45247;47.466;19.004;2023-05-11T00:24:21;99979.91;;;11.79;83.39
59443;BME280;45247;47.466;19.004;2023-05-11T00:26:49;99984.44;;;11.77;83.54
59443;BME280;45247;47.466;19.004;2023-05-11T00:29:17;99981.16;;;11.74;86.16
59443;BME280;45247;47.466;19.004;2023-05-11T00:31:47;99976.72;;;11.74;85.76
59443;BME280;45247;47.466;19.004;2023-05-11T00:34:16;99982.00;;;11.74;85.97
59443;BME280;45247;47.466;19.004;2023-05-11T00:36:44;99980.31;;;11.73;86.27
59443;BME280;45247;47.466;19.004;2023-05-11T00:39:12;99975.03;;;11.73;86.73
59443;BME280;45247;47.466;19.004;2023-05-11T00:41:41;99974.81;;;11.76;86.42
59443;BME280;45247;47.466;19.004;2023-05-11T00:44:09;99965.38;;;11.72;87.97
59443;BME280;45247;47.466;19.004;2023-05-11T00:46:37;99966.13;;;11.74;88.02
59443;BME280;45247;47.466;19.004;2023-05-11T00:49:06;99963.50;;;11.74;87.95
59443;BME280;45247;47.466;19.004;2023-05-11T00:51:35;99966.97;;;11.75;87.94
59443;BME280;45247;47.466;19.004;2023-05-11T00:54:04;99972.16;;;11.76;87.63
59443;BME280;45247;47.466;19.004;2023-05-11T00:56:38;99964.16;;;11.78;89.68
59443;BME280;45247;47.466;19.004;2023-05-11T00:59:07;99965.91;;;11.77;88.61
59443;BME280;45247;47.466;19.004;2023-05-11T01:01:37;99959.59;;;11.80;89.10
59443;BME280;45247;47.466;19.004;2023-05-11T01:04:07;99962.09;;;11.83;89.26
59443;BME280;45247;47.466;19.004;2023-05-11T01:06:41;99961.03;;;11.86;88.40
59443;BME280;45247;47.466;19.004;2023-05-11T01:09:20;99959.88;;;11.90;88.31
59443;BME280;45247;47.466;19.004;2023-05-11T01:11:58;99960.66;;;11.92;87.86
59443;BME280;45247;47.466;19.004;2023-05-11T01:14:33;99960.34;;;11.96;88.42
59443;BME280;45247;47.466;19.004;2023-05-11T01:17:08;99955.06;;;11.96;88.19
59443;BME280;45247;47.466;19.004;2023-05-11T01:19:42;99961.00;;;12.00;88.39
59443;BME280;45247;47.466;19.004;2023-05-11T01:22:26;99957.41;;;12.01;88.82
59443;BME280;45247;47.466;19.004;2023-05-11T01:25:06;99960.78;;;12.03;89.88
59443;BME280;45247;47.466;19.004;2023-05-11T01:28:00;99958.06;;;12.05;89.71
59443;BME280;45247;47.466;19.004;2023-05-11T01:30:41;99965.03;;;12.06;88.75
59443;BME280;45247;47.466;19.004;2023-05-11T01:33:13;99959.56;;;12.09;88.85
59443;BME280;45247;47.466;19.004;2023-05-11T01:35:45;99955.13;;;12.09;88.47
59443;BME280;45247;47.466;19.004;2023-05-11T01:38:14;99963.91;;;12.10;88.39
59443;BME280;45247;47.466;19.004;2023-05-11T01:40:49;99953.31;;;12.10;88.51
59443;BME280;45247;47.466;19.004;2023-05-11T01:43:20;99963.91;;;12.10;88.84
59443;BME280;45247;47.466;19.004;2023-05-11T01:45:53;99949.84;;;12.09;88.70
59443;BME280;45247;47.466;19.004;2023-05-11T01:48:24;99961.25;;;12.10;88.83
59443;BME280;45247;47.466;19.004;2023-05-11T01:50:55;99949.84;;;12.09;89.20
59443;BME280;45247;47.466;19.004;2023-05-11T01:53:27;99957.88;;;12.08;88.80
59443;BME280;45247;47.466;19.004;2023-05-11T01:55:58;99955.22;;;12.08;89.38
59443;BME280;45247;47.466;19.004;2023-05-11T01:58:28;99952.78;;;12.05;88.96
59443;BME280;45247;47.466;19.004;2023-05-11T02:00:58;99944.06;;;12.02;89.69
59443;BME280;45247;47.466;19.004;2023-05-11T02:03:30;99940.50;;;12.03;88.41
59443;BME280;45247;47.466;19.004;2023-05-11T02:06:01;99946.84;;;12.01;88.71
59443;BME280;45247;47.466;19.004;2023-05-11T02:08:31;99952.22;;;11.99;88.89
59443;BME280;45247;47.466;19.004;2023-05-11T02:11:01;99952.41;;;11.96;88.22
59443;BME280;45247;47.466;19.004;2023-05-11T02:13:30;99950.72;;;11.95;88.77
59443;BME280;45247;47.466;19.004;2023-05-11T02:16:02;99944.69;;;11.93;88.39
59443;BME280;45247;47.466;19.004;2023-05-11T02:18:32;99940.53;;;11.89;88.63
59443;BME280;45247;47.466;19.004;2023-05-11T02:21:01;99940.75;;;11.86;90.05
59443;BME280;45247;47.466;19.004;2023-05-11T02:23:31;99937.50;;;11.81;89.95
59443;BME280;45247;47.466;19.004;2023-05-11T02:26:02;99927.44;;;11.73;90.91
59443;BME280;45247;47.466;19.004;2023-05-11T02:28:30;99943.91;;;11.77;89.59
59443;BME280;45247;47.466;19.004;2023-05-11T02:31:03;99931.84;;;11.73;89.48
59443;BME280;45247;47.466;19.004;2023-05-11T02:33:34;99933.63;;;11.72;89.15
59443;BME280;45247;47.466;19.004;2023-05-11T02:36:04;99939.22;;;11.68;90.59
59443;BME280;45247;47.466;19.004;2023-05-11T02:38:34;99938.66;;;11.63;93.25
59443;BME280;45247;47.466;19.004;2023-05-11T02:41:05;99928.38;;;11.58;92.45
59443;BME280;45247;47.466;19.004;2023-05-11T02:43:35;99928.56;;;11.55;91.85
59443;BME280;45247;47.466;19.004;2023-05-11T02:46:14;99928.78;;;11.52;92.29
59443;BME280;45247;47.466;19.004;2023-05-11T02:48:48;99924.72;;;11.46;93.83
59443;BME280;45247;47.466;19.004;2023-05-11T02:51:20;99924.72;;;11.46;92.87
59443;BME280;45247;47.466;19.004;2023-05-11T02:53:53;99925.47;;;11.34;94.29
59443;BME280;45247;47.466;19.004;2023-05-11T02:56:23;99920.41;;;11.31;93.19
59443;BME280;45247;47.466;19.004;2023-05-11T02:58:51;99927.75;;;11.26;94.36
59443;BME280;45247;47.466;19.004;2023-05-11T03:01:21;99923.53;;;11.23;95.38
59443;BME280;45247;47.466;19.004;2023-05-11T03:03:49;99924.53;;;11.21;94.78
59443;BME280;45247;47.466;19.004;2023-05-11T03:06:17;99923.03;;;11.17;96.74
59443;BME280;45247;47.466;19.004;2023-05-11T03:08:45;99922.38;;;11.13;96.23
59443;BME280;45247;47.466;19.004;2023-05-11T03:11:14;99923.44;;;11.11;96.24
59443;BME280;45247;47.466;19.004;2023-05-11T03:13:44;99926.91;;;11.11;96.46
59443;BME280;45247;47.466;19.004;2023-05-11T03:16:13;99927.66;;;11.13;96.04
59443;BME280;45247;47.466;19.004;2023-05-11T03:18:45;99930.41;;;11.12;96.18
59443;BME280;45247;47.466;19.004;2023-05-11T03:21:15;99928.53;;;11.14;95.38
59443;BME280;45247;47.466;19.004;2023-05-11T03:23:47;99930.22;;;11.15;96.05
59443;BME280;45247;47.466;19.004;2023-05-11T03:26:17;99931.06;;;11.15;95.77
59443;BME280;45247;47.466;19.004;2023-05-11T03:28:47;99935.69;;;11.12;95.40
59443;BME280;45247;47.466;19.004;2023-05-11T03:31:17;99936.44;;;11.14;95.18
59443;BME280;45247;47.466;19.004;2023-05-11T03:33:47;99930.03;;;11.18;94.71
59443;BME280;45247;47.466;19.004;2023-05-11T03:36:16;99928.13;;;11.20;94.28
59443;BME280;45247;47.466;19.004;2023-05-11T03:38:45;99945.50;;;11.24;94.36
59443;BME280;45247;47.466;19.004;2023-05-11T03:41:16;99933.25;;;11.23;94.06
59443;BME280;45247;47.466;19.004;2023-05-11T03:43:46;99931.34;;;11.25;93.19
59443;BME280;45247;47.466;19.004;2023-05-11T03:46:18;99932.66;;;11.32;91.83
59443;BME280;45247;47.466;19.004;2023-05-11T03:48:49;99933.50;;;11.33;92.23
59443;BME280;45247;47.466;19.004;2023-05-11T03:51:18;99933.34;;;11.36;91.94
59443;BME280;45247;47.466;19.004;2023-05-11T03:53:47;99939.28;;;11.39;91.13
59443;BME280;45247;47.466;19.004;2023-05-11T03:56:15;99934.84;;;11.40;90.32
59443;BME280;45247;47.466;19.004;2023-05-11T03:58:43;99937.56;;;11.38;89.43
59443;BME280;45247;47.466;19.004;2023-05-11T04:01:12;99937.38;;;11.41;89.86
59443;BME280;45247;47.466;19.004;2023-05-11T04:03:48;99936.34;;;11.44;89.52
59443;BME280;45247;47.466;19.004;2023-05-11T04:06:17;99945.84;;;11.46;89.30
59443;BME280;45247;47.466;19.004;2023-05-11T04:08:46;99929.81;;;11.49;88.56
59443;BME280;45247;47.466;19.004;2023-05-11T04:11:14;99939.81;;;11.59;87.27
59443;BME280;45247;47.466;19.004;2023-05-11T04:13:43;99942.13;;;11.92;83.41
59443;BME280;45247;47.466;19.004;2023-05-11T04:16:11;99954.31;;;11.80;84.16
59443;BME280;45247;47.466;19.004;2023-05-11T04:18:39;99948.66;;;11.72;83.49
59443;BME280;45247;47.466;19.004;2023-05-11T04:21:09;99950.63;;;11.68;84.42
59443;BME280;45247;47.466;19.004;2023-05-11T04:23:37;99958.78;;;11.65;85.34
59443;BME280;45247;47.466;19.004;2023-05-11T04:26:05;99954.34;;;11.66;86.75
59443;BME280;45247;47.466;19.004;2023-05-11T04:28:33;99967.56;;;11.66;87.38
59443;BME280;45247;47.466;19.004;2023-05-11T04:31:01;99958.88;;;11.64;86.73
59443;BME280;45247;47.466;19.004;2023-05-11T04:33:29;99959.81;;;11.63;87.75
59443;BME280;45247;47.466;19.004;2023-05-11T04:35:58;99965.56;;;11.55;89.02
59443;BME280;45247;47.466;19.004;2023-05-11T04:38:27;99955.84;;;11.56;90.83
59443;BME280;45247;47.466;19.004;2023-05-11T04:40:55;99966.25;;;11.59;90.60
59443;BME280;45247;47.466;19.004;2023-05-11T04:43:24;99969.81;;;11.72;91.64
59443;BME280;45247;47.466;19.004;2023-05-11T04:45:52;99964.34;;;11.75;91.28
59443;BME280;45247;47.466;19.004;2023-05-11T04:48:20;99969.06;;;11.84;91.23
59443;BME280;45247;47.466;19.004;2023-05-11T04:50:48;99977.53;;;12.03;91.42
59443;BME280;45247;47.466;19.004;2023-05-11T04:53:16;99972.44;;;12.27;87.11
59443;BME280;45247;47.466;19.004;2023-05-11T04:55:46;99970.69;;;14.31;73.92
59443;BME280;45247;47.466;19.004;2023-05-11T04:58:14;99976.06;;;15.35;65.93
59443;BME280;45247;47.466;19.004;2023-05-11T05:00:42;99970.38;;;15.28;65.53
59443;BME280;45247;47.466;19.004;2023-05-11T05:03:10;99973.38;;;15.23;64.79
59443;BME280;45247;47.466;19.004;2023-05-11T05:05:38;99974.03;;;15.61;63.63
59443;BME280;45247;47.466;19.004;2023-05-11T05:08:06;99973.41;;;15.12;64.10
59443;BME280;45247;47.466;19.004;2023-05-11T05:10:35;99968.66;;;15.05;64.83
59443;BME280;45247;47.466;19.004;2023-05-11T05:13:04;99980.28;;;15.26;62.62
59443;BME280;45247;47.466;19.004;2023-05-11T05:15:33;99973.03;;;16.07;59.90
59443;BME280;45247;47.466;19.004;2023-05-11T05:18:01;99976.25;;;16.21;59.57
59443;BME280;45247;47.466;19.004;2023-05-11T05:20:29;99969.53;;;17.94;55.20
59443;BME280;45247;47.466;19.004;2023-05-11T05:22:57;99972.56;;;19.35;49.65
59443;BME280;45247;47.466;19.004;2023-05-11T05:25:25;99973.81;;;20.69;46.76
59443;BME280;45247;47.466;19.004;2023-05-11T05:27:53;99974.56;;;20.79;44.25
59443;BME280;45247;47.466;19.004;2023-05-11T05:30:23;99966.63;;;21.39;41.49
59443;BME280;45247;47.466;19.004;2023-05-11T05:32:51;99979.06;;;22.17;40.56
59443;BME280;45247;47.466;19.004;2023-05-11T05:35:21;99962.97;;;21.83;40.63
59443;BME280;45247;47.466;19.004;2023-05-11T05:37:49;99972.53;;;21.77;39.97
59443;BME280;45247;47.466;19.004;2023-05-11T05:40:17;99969.06;;;22.84;38.87
59443;BME280;45247;47.466;19.004;2023-05-11T05:42:45;99979.75;;;22.35;37.92
59443;BME280;45247;47.466;19.004;2023-05-11T05:45:13;99979.78;;;22.27;39.13
59443;BME280;45247;47.466;19.004;2023-05-11T05:47:43;99968.06;;;23.18;37.41
59443;BME280;45247;47.466;19.004;2023-05-11T05:50:11;99975.34;;;23.65;36.44
59443;BME280;45247;47.466;19.004;2023-05-11T05:52:39;99991.25;;;23.11;36.58
59443;BME280;45247;47.466;19.004;2023-05-11T05:55:08;99988.25;;;23.14;37.48
59443;BME280;45247;47.466;19.004;2023-05-11T05:57:36;99979.53;;;23.67;35.82
59443;BME280;45247;47.466;19.004;2023-05-11T06:00:05;99978.00;;;23.81;35.98
59443;BME280;45247;47.466;19.004;2023-05-11T06:02:35;99985.38;;;22.83;36.56
59443;BME280;45247;47.466;19.004;2023-05-11T06:05:06;99983.16;;;22.54;37.54
59443;BME280;45247;47.466;19.004;2023-05-11T06:07:34;99978.06;;;21.75;38.63
59443;BME280;45247;47.466;19.004;2023-05-11T06:10:03;99985.44;;;21.73;38.42
59443;BME280;45247;47.466;19.004;2023-05-11T06:12:31;99985.13;;;21.24;40.51
59443;BME280;45247;47.466;19.004;2023-05-11T06:14:59;99988.88;;;20.88;40.65
59443;BME280;45247;47.466;19.004;2023-05-11T06:17:27;99989.25;;;20.21;41.62
59443;BME280;45247;47.466;19.004;2023-05-11T06:19:56;99977.06;;;20.09;42.47
59443;BME280;45247;47.466;19.004;2023-05-11T06:22:25;99983.13;;;19.84;42.86
59443;BME280;45247;47.466;19.004;2023-05-11T06:24:53;99986.66;;;20.47;43.22
59443;BME280;45247;47.466;19.004;2023-05-11T06:27:21;99984.66;;;20.85;41.66
59443;BME280;45247;47.466;19.004;2023-05-11T06:29:49;99990.72;;;20.87;41.47
59443;BME280;45247;47.466;19.004;2023-05-11T06:32:17;99980.78;;;20.62;41.60
59443;BME280;45247;47.466;19.004;2023-05-11T06:34:45;99985.28;;;19.98;42.37
59443;BME280;45247;47.466;19.004;2023-05-11T06:37:13;99980.78;;;19.71;43.86
59443;BME280;45247;47.466;19.004;2023-05-11T06:39:47;99988.31;;;19.85;43.77
59443;BME280;45247;47.466;19.004;2023-05-11T06:42:15;99982.19;;;19.75;43.68
59443;BME280;45247;47.466;19.004;2023-05-11T06:44:43;99985.63;;;19.48;44.73
59443;BME280;45247;47.466;19.004;2023-05-11T06:47:11;99972.44;;;19.74;43.86
59443;BME280;45247;47.466;19.004;2023-05-11T06:49:40;99976.22;;;19.34;45.55
59443;BME280;45247;47.466;19.004;2023-05-11T06:52:08;99980.00;;;19.88;44.63
59443;BME280;45247;47.466;19.004;2023-05-11T06:54:36;99973.75;;;19.70;44.31
59443;BME280;45247;47.466;19.004;2023-05-11T06:57:06;99977.59;;;19.48;44.87
59443;BME280;45247;47.466;19.004;2023-05-11T06:59:34;99976.22;;;19.34;45.41
59443;BME280;45247;47.466;19.004;2023-05-11T07:02:03;99979.25;;;19.12;46.00
59443;BME280;45247;47.466;19.004;2023-05-11T07:04:31;99976.59;;;19.12;47.72
59443;BME280;45247;47.466;19.004;2023-05-11T07:06:59;99977.31;;;18.94;46.33
59443;BME280;45247;47.466;19.004;2023-05-11T07:09:27;99969.53;;;19.20;44.32
59443;BME280;45247;47.466;19.004;2023-05-11T07:11:56;99972.69;;;18.87;44.77
59443;BME280;45247;47.466;19.004;2023-05-11T07:14:25;99970.41;;;19.11;45.22
59443;BME280;45247;47.466;19.004;2023-05-11T07:16:53;99971.97;;;18.94;43.80
59443;BME280;45247;47.466;19.004;2023-05-11T07:19:21;99967.97;;;19.18;44.64
59443;BME280;45247;47.466;19.004;2023-05-11T07:21:53;99973.66;;;18.95;44.21
59443;BME280;45247;47.466;19.004;2023-05-11T07:24:21;99968.44;;;19.04;44.09
59443;BME280;45247;47.466;19.004;2023-05-11T07:26:49;99964.03;;;19.22;44.50
59443;BME280;45247;47.466;19.004;2023-05-11T07:29:17;99960.69;;;19.57;44.18
59443;BME280;45247;47.466;19.004;2023-05-11T07:31:47;99967.75;;;20.04;43.91
59443;BME280;45247;47.466;19.004;2023-05-11T07:34:15;99971.06;;;19.60;42.82
59443;BME280;45247;47.466;19.004;2023-05-11T07:36:44;99956.66;;;19.98;43.98
59443;BME280;45247;47.466;19.004;2023-05-11T07:39:12;99967.91;;;19.84;42.42
59443;BME280;45247;47.466;19.004;2023-05-11T07:41:41;99957.59;;;19.62;43.24
59443;BME280;45247;47.466;19.004;2023-05-11T07:44:10;99962.81;;;19.54;43.34
59443;BME280;45247;47.466;19.004;2023-05-11T07:46:38;99964.28;;;19.29;42.90
59443;BME280;45247;47.466;19.004;2023-05-11T07:49:07;99959.06;;;19.37;42.79
59443;BME280;45247;47.466;19.004;2023-05-11T07:51:48;99967.56;;;19.13;43.38
59443;BME280;45247;47.466;19.004;2023-05-11T07:54:18;99967.81;;;19.29;43.47
59443;BME280;45247;47.466;19.004;2023-05-11T07:56:47;99967.50;;;18.85;43.36
59443;BME280;45247;47.466;19.004;2023-05-11T07:59:15;99967.34;;;18.77;44.18
59443;BME280;45247;47.466;19.004;2023-05-11T08:01:43;99960.50;;;19.21;44.42
59443;BME280;45247;47.466;19.004;2023-05-11T08:04:13;99960.50;;;19.21;44.56
59443;BME280;45247;47.466;19.004;2023-05-11T08:06:41;99966.44;;;19.06;44.41
59443;BME280;45247;47.466;19.004;2023-05-11T08:09:10;99966.78;;;18.83;44.58
59443;BME280;45247;47.466;19.004;2023-05-11T08:11:38;99957.47;;;19.07;45.23
59443;BME280;45247;47.466;19.004;2023-05-11T08:14:06;99970.31;;;19.40;45.40
59443;BME280;45247;47.466;19.004;2023-05-11T08:16:34;99959.75;;;19.39;44.90
59443;BME280;45247;47.466;19.004;2023-05-11T08:19:04;99951.75;;;19.29;44.24
59443;BME280;45247;47.466;19.004;2023-05-11T08:21:33;99952.16;;;19.34;45.09
59443;BME280;45247;47.466;19.004;2023-05-11T08:24:02;99950.63;;;19.22;44.44
59443;BME280;45247;47.466;19.004;2023-05-11T08:26:31;99948.16;;;19.11;44.71
59443;BME280;45247;47.466;19.004;2023-05-11T08:28:59;99941.84;;;18.92;44.56
59443;BME280;45247;47.466;19.004;2023-05-11T08:31:27;99939.72;;;19.43;45.50
59443;BME280;45247;47.466;19.004;2023-05-11T08:33:56;99940.97;;;19.11;43.44
59443;BME280;45247;47.466;19.004;2023-05-11T08:36:24;99938.84;;;19.05;45.09
59443;BME280;45247;47.466;19.004;2023-05-11T08:38:54;99943.72;;;19.29;44.34
59443;BME280;45247;47.466;19.004;2023-05-11T08:41:25;99938.81;;;19.24;43.79
59443;BME280;45247;47.466;19.004;2023-05-11T08:43:54;99937.06;;;19.43;44.08
59443;BME280;45247;47.466;19.004;2023-05-11T08:46:28;99940.53;;;19.16;44.79
59443;BME280;45247;47.466;19.004;2023-05-11T08:48:56;99943.97;;;18.98;44.53
59443;BME280;45247;47.466;19.004;2023-05-11T08:51:25;99928.25;;;18.37;45.42
59443;BME280;45247;47.466;19.004;2023-05-11T08:53:55;99926.81;;;18.52;44.92
59443;BME280;45247;47.466;19.004;2023-05-11T08:56:25;99925.13;;;18.71;46.72
59443;BME280;45247;47.466;19.004;2023-05-11T08:58:56;99924.53;;;18.96;45.64
59443;BME280;45247;47.466;19.004;2023-05-11T09:01:27;99951.56;;;18.84;44.89
59443;BME280;45247;47.466;19.004;2023-05-11T09:03:56;99911.78;;;18.71;45.06
59443;BME280;45247;47.466;19.004;2023-05-11T09:06:25;99913.03;;;18.86;44.89
59443;BME280;45247;47.466;19.004;2023-05-11T09:08:56;99907.97;;;18.83;45.17
59443;BME280;45247;47.466;19.004;2023-05-11T09:11:25;99917.91;;;19.10;44.90
59443;BME280;45247;47.466;19.004;2023-05-11T09:13:53;99910.59;;;19.02;44.14
59443;BME280;45247;47.466;19.004;2023-05-11T09:16:22;99905.09;;;19.04;44.84
59443;BME280;45247;47.466;19.004;2023-05-11T09:19:03;99902.63;;;18.64;45.82
59443;BME280;45247;47.466;19.004;2023-05-11T09:21:31;99915.84;;;18.56;45.79
59443;BME280;45247;47.466;19.004;2023-05-11T09:24:01;99902.50;;;18.46;46.43
59443;BME280;45247;47.466;19.004;2023-05-11T09:26:32;99896.88;;;18.59;46.38
59443;BME280;45247;47.466;19.004;2023-05-11T09:29:00;99904.75;;;18.50;45.50
59443;BME280;45247;47.466;19.004;2023-05-11T09:31:40;99906.84;;;18.57;44.08
59443;BME280;45247;47.466;19.004;2023-05-11T09:34:13;99888.28;;;18.74;43.31
59443;BME280;45247;47.466;19.004;2023-05-11T09:36:42;99895.47;;;19.21;43.64
59443;BME280;45247;47.466;19.004;2023-05-11T09:39:13;99895.38;;;19.03;43.51
59443;BME280;45247;47.466;19.004;2023-05-11T09:41:42;99891.84;;;19.12;42.28
59443;BME280;45247;47.466;19.004;2023-05-11T09:44:12;99900.31;;;19.45;42.43
59443;BME280;45247;47.466;19.004;2023-05-11T09:46:42;99878.41;;;19.22;41.62
59443;BME280;45247;47.466;19.004;2023-05-11T09:49:11;99879.22;;;19.60;41.36
59443;BME280;45247;47.466;19.004;2023-05-11T09:51:39;99889.63;;;19.90;41.03
59443;BME280;45247;47.466;19.004;2023-05-11T09:54:17;99889.41;;;20.01;40.67
59443;BME280;45247;47.466;19.004;2023-05-11T09:56:47;99873.63;;;19.98;39.93
59443;BME280;45247;47.466;19.004;2023-05-11T09:59:17;99884.50;;;19.79;40.54
59443;BME280;45247;47.466;19.004;2023-05-11T10:02:16;99869.19;;;19.89;40.39
59443;BME280;45247;47.466;19.004;2023-05-11T10:04:44;99871.19;;;20.23;40.41
59443;BME280;45247;47.466;19.004;2023-05-11T10:07:22;99876.75;;;20.30;38.90
59443;BME280;45247;47.466;19.004;2023-05-11T10:09:53;99872.81;;;19.98;37.82
59443;BME280;45247;47.466;19.004;2023-05-11T10:12:24;99855.81;;;20.43;38.74
59443;BME280;45247;47.466;19.004;2023-05-11T10:15:00;99868.59;;;20.31;38.07
59443;BME280;45247;47.466;19.004;2023-05-11T10:17:29;99865.59;;;20.16;38.64
59443;BME280;45247;47.466;19.004;2023-05-11T10:19:59;99853.78;;;20.45;37.80
59443;BME280;45247;47.466;19.004;2023-05-11T10:22:28;99864.53;;;20.27;39.20
59443;BME280;45247;47.466;19.004;2023-05-11T10:24:58;99857.41;;;19.82;39.39
59443;BME280;45247;47.466;19.004;2023-05-11T10:27:27;99844.09;;;19.45;40.20
59443;BME280;45247;47.466;19.004;2023-05-11T10:29:57;99860.13;;;20.00;40.13
59443;BME280;45247;47.466;19.004;2023-05-11T10:32:26;99861.47;;;19.59;39.88
59443;BME280;45247;47.466;19.004;2023-05-11T10:34:55;99842.97;;;19.93;39.19
59443;BME280;45247;47.466;19.004;2023-05-11T10:37:24;99847.69;;;19.63;39.04
59443;BME280;45247;47.466;19.004;2023-05-11T10:39:57;99830.56;;;19.92;38.94
59443;BME280;45247;47.466;19.004;2023-05-11T10:42:57;99851.13;;;20.27;38.65
59443;BME280;45247;47.466;19.004;2023-05-11T10:45:35;99844.94;;;20.26;38.47
59443;BME280;45247;47.466;19.004;2023-05-11T10:48:25;99843.16;;;19.64;39.88
59443;BME280;45247;47.466;19.004;2023-05-11T10:51:09;99851.16;;;19.91;39.11
59443;BME280;45247;47.466;19.004;2023-05-11T10:53:54;99848.53;;;19.64;38.01
59443;BME280;45247;47.466;19.004;2023-05-11T10:56:53;99848.91;;;19.87;39.90
59443;BME280;45247;47.466;19.004;2023-05-11T10:59:46;99842.25;;;19.73;39.36
59443;BME280;45247;47.466;19.004;2023-05-11T11:02:20;99832.47;;;19.82;37.77
59443;BME280;45247;47.466;19.004;2023-05-11T11:04:51;99834.69;;;19.86;39.02
59443;BME280;45247;47.466;19.004;2023-05-11T11:07:19;99826.31;;;20.25;37.85
59443;BME280;45247;47.466;19.004;2023-05-11T11:09:52;99831.22;;;20.47;36.92
59443;BME280;45247;47.466;19.004;2023-05-11T11:12:23;99820.63;;;20.90;37.86
59443;BME280;45247;47.466;19.004;2023-05-11T11:14:57;99817.44;;;20.94;37.81
59443;BME280;45247;47.466;19.004;2023-05-11T11:17:27;99815.56;;;20.61;37.19
59443;BME280;45247;47.466;19.004;2023-05-11T11:19:58;99820.94;;;20.61;36.33
59443;BME280;45247;47.466;19.004;2023-05-11T11:22:44;99812.69;;;20.36;36.49
59443;BME280;45247;47.466;19.004;2023-05-11T11:25:51;99813.22;;;20.40;35.96
59443;BME280;45247;47.466;19.004;2023-05-11T11:28:22;99814.28;;;20.65;36.22
59443;BME280;45247;47.466;19.004;2023-05-11T11:31:23;99823.94;;;20.40;35.96
59443;BME280;45247;47.466;19.004;2023-05-11T11:33:52;99813.47;;;20.29;36.15
59443;BME280;45247;47.466;19.004;2023-05-11T11:39:12;99815.13;;;20.99;36.20
59443;BME280;45247;47.466;19.004;2023-05-11T11:41:40;99809.56;;;20.67;36.61
59443;BME280;45247;47.466;19.004;2023-05-11T11:44:20;99817.09;;;20.45;35.99
59443;BME280;45247;47.466;19.004;2023-05-11T11:47:09;99810.59;;;20.22;36.43
59443;BME280;45247;47.466;19.004;2023-05-11T11:49:38;99802.34;;;20.41;36.82
59443;BME280;45247;47.466;19.004;2023-05-11T11:52:10;99809.94;;;20.28;36.82
59443;BME280;45247;47.466;19.004;2023-05-11T11:54:38;99807.44;;;19.91;37.51
59443;BME280;45247;47.466;19.004;2023-05-11T11:57:42;99807.47;;;20.09;38.24
59443;BME280;45247;47.466;19.004;2023-05-11T12:00:19;99806.78;;;20.33;38.03
59443;BME280;45247;47.466;19.004;2023-05-11T12:02:48;99804.72;;;20.44;37.06
59443;BME280;45247;47.466;19.004;2023-05-11T12:05:17;99796.31;;;20.39;36.08
59443;BME280;45247;47.466;19.004;2023-05-11T12:07:49;99802.22;;;20.69;36.59
59443;BME280;45247;47.466;19.004;2023-05-11T12:10:19;99809.56;;;20.67;35.74
59443;BME280;45247;47.466;19.004;2023-05-11T12:12:48;99799.88;;;21.00;35.22
59443;BME280;45247;47.466;19.004;2023-05-11T12:15:25;99781.44;;;21.05;33.78
59443;BME280;45247;47.466;19.004;2023-05-11T12:17:53;99782.94;;;20.99;34.99
59443;BME280;45247;47.466;19.004;2023-05-11T12:20:22;99794.44;;;21.26;35.44
59443;BME280;45247;47.466;19.004;2023-05-11T12:22:51;99788.00;;;21.11;34.84
59443;BME280;45247;47.466;19.004;2023-05-11T12:25:20;99804.31;;;20.83;34.93
59443;BME280;45247;47.466;19.004;2023-05-11T12:27:50;99783.28;;;21.05;35.50
59443;BME280;45247;47.466;19.004;2023-05-11T12:30:21;99771.88;;;21.02;35.32
59443;BME280;45247;47.466;19.004;2023-05-11T12:32:52;99764.47;;;20.36;36.37
59443;BME280;45247;47.466;19.004;2023-05-11T12:35:25;99782.41;;;20.18;37.11
59443;BME280;45247;47.466;19.004;2023-05-11T12:37:53;99770.94;;;20.08;37.64
59443;BME280;45247;47.466;19.004;2023-05-11T12:40:22;99768.88;;;20.01;37.06
59443;BME280;45247;47.466;19.004;2023-05-11T12:42:51;99758.88;;;20.30;37.94
59443;BME280;45247;47.466;19.004;2023-05-11T12:45:20;99768.59;;;20.48;37.89
59443;BME280;45247;47.466;19.004;2023-05-11T12:47:51;99781.13;;;19.86;38.54
59443;BME280;45247;47.466;19.004;2023-05-11T12:50:20;99759.63;;;20.14;38.44
59443;BME280;45247;47.466;19.004;2023-05-11T12:52:49;99759.81;;;20.46;38.42
59443;BME280;45247;47.466;19.004;2023-05-11T12:55:26;99758.44;;;20.60;37.09
59443;BME280;45247;47.466;19.004;2023-05-11T12:58:06;99748.50;;;20.53;37.19
59443;BME280;45247;47.466;19.004;2023-05-11T13:00:34;99748.06;;;20.39;36.64
59443;BME280;45247;47.466;19.004;2023-05-11T13:03:04;99743.44;;;20.75;36.36
59443;BME280;45247;47.466;19.004;2023-05-11T13:05:34;99744.88;;;20.96;35.99
59443;BME280;45247;47.466;19.004;2023-05-11T13:08:03;99742.00;;;20.97;35.00
59443;BME280;45247;47.466;19.004;2023-05-11T13:10:32;99748.09;;;21.08;34.92
59443;BME280;45247;47.466;19.004;2023-05-11T13:13:00;99737.31;;;20.91;34.97